createdAt,value
2023-05-04T00:01:38.291Z,2.53
2023-05-04T00:03:41.192Z,2.40
2023-05-04T00:05:44.041Z,2.50
2023-05-04T00:07:46.744Z,2.63
2023-05-04T00:09:50.718Z,2.40
2023-05-04T00:11:53.464Z,2.47
2023-05-04T00:13:57.484Z,2.67
2023-05-04T00:16:00.274Z,2.20
2023-05-04T00:18:03.458Z,2.80
2023-05-04T00:20:07.326Z,2.60
2023-05-04T00:22:10.199Z,2.80
2023-05-04T00:24:12.938Z,2.43
2023-05-04T00:26:16.276Z,2.60
2023-05-04T00:28:19.014Z,2.40
2023-05-04T00:30:23.228Z,2.37
2023-05-04T00:32:26.271Z,2.33
2023-05-04T00:34:30.211Z,3.10
2023-05-04T00:36:32.965Z,2.50
2023-05-04T00:38:35.781Z,2.37
2023-05-04T00:40:38.907Z,2.40
2023-05-04T00:42:41.698Z,2.50
2023-05-04T00:44:44.802Z,2.73
2023-05-04T00:46:48.902Z,2.70
2023-05-04T00:48:52.274Z,2.70
2023-05-04T00:50:55.008Z,2.60
2023-05-04T00:52:59.507Z,2.50
2023-05-04T00:55:02.257Z,2.53
2023-05-04T00:57:05.528Z,2.20
2023-05-04T00:59:08.259Z,2.90
2023-05-04T01:01:11.025Z,2.77
2023-05-04T01:03:15.195Z,2.80
2023-05-04T01:05:18.749Z,2.50
2023-05-04T01:07:24.263Z,2.77
2023-05-04T01:09:30.831Z,2.70
2023-05-04T01:11:38.427Z,2.33
2023-05-04T01:13:41.511Z,2.40
2023-05-04T01:15:44.318Z,2.50
2023-05-04T01:17:47.106Z,2.57
2023-05-04T01:19:53.907Z,2.40
2023-05-04T01:21:58.544Z,2.60
2023-05-04T01:24:01.327Z,2.33
2023-05-04T01:26:05.946Z,2.37
2023-05-04T01:28:09.814Z,2.53
2023-05-04T01:30:15.982Z,2.50
2023-05-04T01:32:18.756Z,2.53
2023-05-04T01:34:21.526Z,2.60
2023-05-04T01:36:24.366Z,2.20
2023-05-04T01:38:28.902Z,2.33
2023-05-04T01:40:31.711Z,2.30
2023-05-04T01:42:34.467Z,2.63
2023-05-04T01:44:38.128Z,2.70
2023-05-04T01:46:41.466Z,2.80
2023-05-04T01:48:44.299Z,2.37
2023-05-04T01:50:47.014Z,2.60
2023-05-04T01:52:50.745Z,2.20
2023-05-04T01:54:54.857Z,2.10
2023-05-04T01:56:57.603Z,2.37
2023-05-04T01:59:00.380Z,2.40
2023-05-04T02:01:03.465Z,2.23
2023-05-04T02:03:06.603Z,2.20
2023-05-04T02:05:10.090Z,2.37
2023-05-04T02:07:12.951Z,2.50
2023-05-04T02:09:16.461Z,2.20
2023-05-04T02:11:21.062Z,2.57
2023-05-04T02:13:24.069Z,2.30
2023-05-04T02:15:26.786Z,2.23
2023-05-04T02:17:29.984Z,1.97
2023-05-04T02:19:32.768Z,2.37
2023-05-04T02:21:35.747Z,2.20
2023-05-04T02:23:38.514Z,2.13
2023-05-04T02:25:42.421Z,2.37
2023-05-04T02:27:46.479Z,2.37
2023-05-04T02:29:49.420Z,2.40
2023-05-04T02:31:52.249Z,2.20
2023-05-04T02:33:55.064Z,2.13
2023-05-04T02:35:57.814Z,2.00
2023-05-04T02:38:00.605Z,2.20
2023-05-04T02:40:04.547Z,2.10
2023-05-04T02:42:07.437Z,2.30
2023-05-04T02:44:11.460Z,2.03
2023-05-04T02:46:14.230Z,2.53
2023-05-04T02:48:17.423Z,2.40
2023-05-04T02:50:20.412Z,1.90
2023-05-04T02:52:23.155Z,2.10
2023-05-04T02:54:25.927Z,1.87
2023-05-04T02:56:29.196Z,2.20
2023-05-04T02:58:31.958Z,1.83
2023-05-04T03:00:36.011Z,2.13
2023-05-04T03:02:38.860Z,2.27
2023-05-04T03:04:42.237Z,2.10
2023-05-04T03:06:45.033Z,1.90
2023-05-04T03:08:47.749Z,2.07
2023-05-04T03:10:50.524Z,2.10
2023-05-04T03:12:53.786Z,2.00
2023-05-04T03:14:56.915Z,1.93
2023-05-04T03:17:01.003Z,1.90
2023-05-04T03:19:03.778Z,2.10
2023-05-04T03:21:07.042Z,1.87
2023-05-04T03:23:09.821Z,2.60
2023-05-04T03:25:12.560Z,2.00
2023-05-04T03:27:15.357Z,1.90
2023-05-04T03:29:18.558Z,1.87
2023-05-04T03:31:21.537Z,1.97
2023-05-04T03:33:25.658Z,1.80
2023-05-04T03:35:28.432Z,1.87
2023-05-04T03:37:31.264Z,1.90
2023-05-04T03:39:34.040Z,2.03
2023-05-04T03:41:36.822Z,1.70
2023-05-04T03:43:39.912Z,2.23
2023-05-04T03:45:42.680Z,2.00
2023-05-04T03:47:45.725Z,1.90
2023-05-04T03:49:49.778Z,2.10
2023-05-04T03:51:52.965Z,1.90
2023-05-04T03:53:55.911Z,2.00
2023-05-04T03:55:58.670Z,1.87
2023-05-04T03:58:01.394Z,1.67
2023-05-04T04:00:05.044Z,1.70
2023-05-04T04:02:08.018Z,2.03
2023-05-04T04:04:11.358Z,1.90
2023-05-04T04:06:15.885Z,2.00
2023-05-04T04:08:19.091Z,1.97
2023-05-04T04:10:21.893Z,1.87
2023-05-04T04:12:24.645Z,2.23
2023-05-04T04:14:27.651Z,1.90
2023-05-04T04:16:30.804Z,2.00
2023-05-04T04:18:33.593Z,2.10
2023-05-04T04:20:36.354Z,2.40
2023-05-04T04:22:40.464Z,2.20
2023-05-04T04:24:43.566Z,1.90
2023-05-04T04:26:46.292Z,2.00
2023-05-04T04:28:50.605Z,1.80
2023-05-04T04:30:53.379Z,1.90
2023-05-04T04:32:57.330Z,1.80
2023-05-04T04:35:00.139Z,1.80
2023-05-04T04:37:03.028Z,2.07
2023-05-04T04:39:07.038Z,1.70
2023-05-04T04:41:09.843Z,2.10
2023-05-04T04:43:13.071Z,2.00
2023-05-04T04:45:16.027Z,1.67
2023-05-04T04:47:19.174Z,1.77
2023-05-04T04:49:22.045Z,2.00
2023-05-04T04:51:24.983Z,2.10
2023-05-04T04:53:28.187Z,1.70
2023-05-04T04:55:32.621Z,1.90
2023-05-04T04:57:35.414Z,1.90
2023-05-04T04:59:38.687Z,1.63
2023-05-04T05:01:42.735Z,2.57
2023-05-04T05:03:45.889Z,1.73
2023-05-04T05:05:48.695Z,1.90
2023-05-04T05:07:51.496Z,1.83
2023-05-04T05:09:54.251Z,1.80
2023-05-04T05:11:58.295Z,2.10
2023-05-04T05:14:01.267Z,1.80
2023-05-04T05:16:04.101Z,2.13
2023-05-04T05:18:07.541Z,1.90
2023-05-04T05:20:11.696Z,1.63
2023-05-04T05:22:14.584Z,2.07
2023-05-04T05:24:17.860Z,1.80
2023-05-04T05:26:20.601Z,1.90
2023-05-04T05:28:24.744Z,2.00
2023-05-04T05:30:28.558Z,1.90
2023-05-04T05:32:32.222Z,1.83
2023-05-04T05:34:38.780Z,1.93
2023-05-04T05:36:41.545Z,1.97
2023-05-04T05:38:44.584Z,1.90
2023-05-04T05:40:51.576Z,1.73
2023-05-04T05:42:54.458Z,1.97
2023-05-04T05:44:58.783Z,1.87
2023-05-04T05:47:02.432Z,1.60
2023-05-04T05:49:07.293Z,1.80
2023-05-04T05:51:10.066Z,1.63
2023-05-04T05:53:13.244Z,2.00
2023-05-04T05:55:16.057Z,1.90
2023-05-04T05:57:20.198Z,1.60
2023-05-04T05:59:22.987Z,2.10
2023-05-04T06:01:27.712Z,1.93
2023-05-04T06:03:30.891Z,1.73
2023-05-04T06:05:34.824Z,1.90
2023-05-04T06:07:38.310Z,2.10
2023-05-04T06:09:42.506Z,1.90
2023-05-04T06:11:45.787Z,1.90
2023-05-04T06:13:48.625Z,1.97
2023-05-04T06:15:52.802Z,2.00
2023-05-04T06:17:57.086Z,1.93
2023-05-04T06:20:00.038Z,1.83
2023-05-04T06:22:02.872Z,1.80
2023-05-04T06:24:06.896Z,1.90
2023-05-04T06:26:09.738Z,1.93
2023-05-04T06:28:12.587Z,1.90
2023-05-04T06:30:16.122Z,1.57
2023-05-04T06:32:19.282Z,1.67
2023-05-04T06:34:23.329Z,2.17
2023-05-04T06:36:26.772Z,1.80
2023-05-04T06:38:29.524Z,1.67
2023-05-04T06:40:32.481Z,1.70
2023-05-04T06:42:35.466Z,2.13
2023-05-04T06:44:39.572Z,1.90
2023-05-04T06:46:42.421Z,2.13
2023-05-04T06:48:45.653Z,1.97
2023-05-04T06:50:49.755Z,1.70
2023-05-04T06:52:52.795Z,1.70
2023-05-04T06:54:56.029Z,1.50
2023-05-04T06:56:58.782Z,2.07
2023-05-04T06:59:01.625Z,2.00
2023-05-04T07:01:04.421Z,1.60
2023-05-04T07:03:07.291Z,1.80
2023-05-04T07:05:10.251Z,2.00
2023-05-04T07:07:14.883Z,1.87
2023-05-04T07:09:19.297Z,2.00
2023-05-04T07:11:22.110Z,1.50
2023-05-04T07:13:25.244Z,1.73
2023-05-04T07:15:27.994Z,1.87
2023-05-04T07:17:32.868Z,1.50
2023-05-04T07:19:35.969Z,1.93
2023-05-04T07:21:38.784Z,1.93
2023-05-04T07:23:42.865Z,1.90
2023-05-04T07:25:45.644Z,1.93
2023-05-04T07:27:48.784Z,2.37
2023-05-04T07:29:51.684Z,1.83
2023-05-04T07:31:54.472Z,1.83
2023-05-04T07:33:57.982Z,1.93
2023-05-04T07:36:03.908Z,2.00
2023-05-04T07:38:08.324Z,2.47
2023-05-04T07:40:14.966Z,2.03
2023-05-04T07:42:19.611Z,2.10
2023-05-04T07:44:23.620Z,2.30
2023-05-04T07:46:26.915Z,2.17
2023-05-04T07:48:29.694Z,1.60
2023-05-04T07:50:32.462Z,2.50
2023-05-04T07:52:35.248Z,2.23
2023-05-04T07:54:38.530Z,2.20
2023-05-04T07:56:42.612Z,1.80
2023-05-04T07:58:46.258Z,1.73
2023-05-04T08:00:49.548Z,1.80
2023-05-04T08:02:52.345Z,2.10
2023-05-04T08:04:55.088Z,2.07
2023-05-04T08:06:57.875Z,1.90
2023-05-04T08:09:01.080Z,1.73
2023-05-04T08:11:18.721Z,1.83
2023-05-04T08:13:23.923Z,2.10
2023-05-04T08:15:26.791Z,2.47
2023-05-04T08:17:30.019Z,1.67
2023-05-04T08:19:32.830Z,2.10
2023-05-04T08:21:35.637Z,2.13
2023-05-04T08:23:38.823Z,2.10
2023-05-04T08:25:41.756Z,2.07
2023-05-04T08:27:50.664Z,2.07
2023-05-04T08:29:54.861Z,2.23
2023-05-04T08:31:58.513Z,1.80
2023-05-04T08:34:01.566Z,1.83
2023-05-04T08:36:04.864Z,2.00
2023-05-04T08:38:11.766Z,2.00
2023-05-04T08:40:15.452Z,1.80
2023-05-04T08:42:29.250Z,2.10
2023-05-04T08:44:34.820Z,1.73
2023-05-04T08:46:40.003Z,1.80
2023-05-04T08:48:44.900Z,1.90
2023-05-04T08:50:48.019Z,2.17
2023-05-04T08:52:52.291Z,1.80
2023-05-04T08:54:57.006Z,1.90
2023-05-04T08:56:59.941Z,1.40
2023-05-04T08:59:03.911Z,1.83
2023-05-04T09:01:08.518Z,2.00
2023-05-04T09:06:28.642Z,2.27
2023-05-04T09:08:31.378Z,2.20
2023-05-04T09:10:34.606Z,2.03
2023-05-04T09:12:38.080Z,2.30
2023-05-04T09:14:41.692Z,1.77
2023-05-04T09:16:44.509Z,2.00
2023-05-04T09:18:53.468Z,2.17
2023-05-04T09:20:56.559Z,2.13
2023-05-04T09:23:07.197Z,2.00
2023-05-04T09:25:11.521Z,1.80
2023-05-04T09:27:16.565Z,1.63
2023-05-04T09:29:19.704Z,1.77
2023-05-04T09:31:23.402Z,1.80
2023-05-04T09:33:27.410Z,1.90
2023-05-04T09:35:33.541Z,2.07
2023-05-04T09:37:44.446Z,2.40
2023-05-04T09:39:53.826Z,1.70
2023-05-04T09:41:58.160Z,1.93
2023-05-04T09:44:01.168Z,1.93
2023-05-04T09:46:04.136Z,2.00
2023-05-04T09:48:17.352Z,2.10
2023-05-04T09:50:22.485Z,2.17
2023-05-04T09:52:25.519Z,1.70
2023-05-04T09:54:28.400Z,2.50
2023-05-04T09:56:43.341Z,2.00
2023-05-04T09:58:46.595Z,1.77
2023-05-04T10:00:50.014Z,2.37
2023-05-04T10:02:53.337Z,2.17
2023-05-04T10:04:56.366Z,2.07
2023-05-04T10:06:59.407Z,2.40
2023-05-04T10:09:03.368Z,2.10
2023-05-04T10:11:07.480Z,2.40
2023-05-04T10:13:11.628Z,2.50
2023-05-04T10:15:14.696Z,2.20
2023-05-04T10:17:22.276Z,2.37
2023-05-04T10:19:36.887Z,2.03
2023-05-04T10:21:47.359Z,2.47
2023-05-04T10:24:01.108Z,2.00
2023-05-04T10:26:14.691Z,2.00
2023-05-04T10:28:26.446Z,2.23
2023-05-04T10:30:29.546Z,2.00
2023-05-04T10:32:38.911Z,1.80
2023-05-04T10:34:47.348Z,2.23
2023-05-04T10:36:51.141Z,2.07
2023-05-04T10:38:54.368Z,2.10
2023-05-04T10:40:57.397Z,2.10
2023-05-04T10:43:00.837Z,1.97
2023-05-04T10:45:09.289Z,2.03
2023-05-04T10:47:12.381Z,2.13
2023-05-04T10:49:17.820Z,2.20
2023-05-04T10:51:26.548Z,1.90
2023-05-04T10:53:33.646Z,1.90
2023-05-04T10:55:40.977Z,2.20
2023-05-04T10:57:50.311Z,2.03
2023-05-04T10:59:58.273Z,2.40
2023-05-04T11:02:03.488Z,2.17
2023-05-04T11:04:06.733Z,2.43
2023-05-04T11:06:16.935Z,2.13
2023-05-04T11:08:20.642Z,2.10
2023-05-04T11:10:24.698Z,2.47
2023-05-04T11:12:27.799Z,2.20
2023-05-04T11:14:30.596Z,2.27
2023-05-04T11:16:33.446Z,2.13
2023-05-04T11:18:41.478Z,2.10
2023-05-04T11:20:44.716Z,2.30
2023-05-04T11:22:47.574Z,2.00
2023-05-04T11:24:50.584Z,1.83
2023-05-04T11:26:54.268Z,2.20
2023-05-04T11:28:57.414Z,1.90
2023-05-04T11:31:02.513Z,2.17
2023-05-04T11:33:12.639Z,2.33
2023-05-04T11:35:19.924Z,1.93
2023-05-04T11:37:23.404Z,2.10
2023-05-04T11:39:27.005Z,1.77
2023-05-04T11:41:30.042Z,1.97
2023-05-04T11:43:33.005Z,2.00
2023-05-04T11:45:36.566Z,1.90
2023-05-04T11:47:39.683Z,2.10
2023-05-04T11:49:42.560Z,1.90
2023-05-04T11:51:48.683Z,1.90
2023-05-04T11:53:52.057Z,1.80
2023-05-04T11:55:56.481Z,2.17
2023-05-04T11:58:00.001Z,1.60
2023-05-04T12:00:04.327Z,1.60
2023-05-04T12:02:07.228Z,1.77
2023-05-04T12:04:10.520Z,2.10
2023-05-04T12:06:13.373Z,1.87
2023-05-04T12:08:27.373Z,2.10
2023-05-04T12:10:34.651Z,2.10
2023-05-04T12:12:37.647Z,1.90
2023-05-04T12:14:48.591Z,2.00
2023-05-04T12:16:59.592Z,1.73
2023-05-04T12:19:06.428Z,2.33
2023-05-04T12:21:10.702Z,2.00
2023-05-04T12:23:13.635Z,1.60
2023-05-04T12:25:20.940Z,2.13
2023-05-04T12:27:23.715Z,1.93
2023-05-04T12:29:26.822Z,1.90
2023-05-04T12:31:30.392Z,1.90
2023-05-04T12:33:33.808Z,1.93
2023-05-04T12:35:36.813Z,1.70
2023-05-04T12:37:39.638Z,1.80
2023-05-04T12:39:42.444Z,2.03
2023-05-04T12:41:46.591Z,1.80
2023-05-04T12:43:50.945Z,1.77
2023-05-04T12:45:54.048Z,1.80
2023-05-04T12:47:57.215Z,2.03
2023-05-04T12:50:02.159Z,2.00
2023-05-04T12:52:05.055Z,1.83
2023-05-04T12:54:08.261Z,2.10
2023-05-04T12:56:11.100Z,2.20
2023-05-04T12:58:15.447Z,2.37
2023-05-04T13:00:18.574Z,1.80
2023-05-04T13:02:23.422Z,1.70
2023-05-04T13:04:26.365Z,2.17
2023-05-04T13:06:29.131Z,1.90
2023-05-04T13:08:33.555Z,1.70
2023-05-04T13:10:36.804Z,1.73
2023-05-04T13:12:39.644Z,1.73
2023-05-04T13:14:43.992Z,1.80
2023-05-04T13:16:48.022Z,1.77
2023-05-04T13:18:51.997Z,2.20
2023-05-04T13:20:54.885Z,1.87
2023-05-04T13:22:58.666Z,2.13
2023-05-04T13:25:01.866Z,2.20
2023-05-04T13:27:05.296Z,2.10
2023-05-04T13:29:08.311Z,1.73
2023-05-04T13:31:12.781Z,1.90
2023-05-04T13:33:28.129Z,1.80
2023-05-04T13:35:32.752Z,2.10
2023-05-04T13:37:35.619Z,1.97
2023-05-04T13:39:40.875Z,2.00
2023-05-04T13:41:43.777Z,1.93
2023-05-04T13:43:46.530Z,1.77
2023-05-04T13:45:49.404Z,2.07
2023-05-04T13:47:53.717Z,1.83
2023-05-04T13:49:57.200Z,2.20
2023-05-04T13:52:00.276Z,1.80
2023-05-04T13:54:03.725Z,1.60
2023-05-04T13:56:07.226Z,1.83
2023-05-04T13:58:10.449Z,1.80
2023-05-04T14:00:15.503Z,2.13
2023-05-04T14:02:20.137Z,2.03
2023-05-04T14:04:24.616Z,1.73
2023-05-04T14:06:29.695Z,1.80
2023-05-04T14:08:32.678Z,1.77
2023-05-04T14:10:37.469Z,1.87
2023-05-04T14:12:40.802Z,1.90
2023-05-04T14:14:44.449Z,1.70
2023-05-04T14:16:48.004Z,2.03
2023-05-04T14:18:51.511Z,2.00
2023-05-04T14:20:55.943Z,1.60
2023-05-04T14:22:59.212Z,1.90
2023-05-04T14:25:02.530Z,1.70
2023-05-04T14:27:05.480Z,1.97
2023-05-04T14:29:08.388Z,2.00
2023-05-04T14:31:11.920Z,2.07
2023-05-04T14:33:14.754Z,1.80
2023-05-04T14:35:17.616Z,1.70
2023-05-04T14:37:21.654Z,1.57
2023-05-04T14:39:24.996Z,1.70
2023-05-04T14:41:33.330Z,2.10
2023-05-04T14:43:36.175Z,1.90
2023-05-04T14:45:39.694Z,1.87
2023-05-04T14:47:43.266Z,2.00
2023-05-04T14:49:48.318Z,1.93
2023-05-04T14:51:51.113Z,2.00
2023-05-04T14:53:55.189Z,2.00
2023-05-04T14:55:58.437Z,1.90
2023-05-04T14:58:01.214Z,1.70
2023-05-04T15:00:08.263Z,1.93
2023-05-04T15:02:12.552Z,2.03
2023-05-04T15:04:17.054Z,1.73
2023-05-04T15:06:20.022Z,1.63
2023-05-04T15:08:22.841Z,2.03
2023-05-04T15:10:27.530Z,2.27
2023-05-04T15:12:30.531Z,2.00
2023-05-04T15:14:33.333Z,1.93
2023-05-04T15:16:36.449Z,1.83
2023-05-04T15:18:39.699Z,1.60
2023-05-04T15:20:42.538Z,2.03
2023-05-04T15:22:47.249Z,1.90
2023-05-04T15:24:50.063Z,2.03
2023-05-04T15:26:54.512Z,2.30
2023-05-04T15:28:57.276Z,1.93
2023-05-04T15:31:00.611Z,2.07
2023-05-04T15:33:05.526Z,1.50
2023-05-04T15:35:08.696Z,1.90
2023-05-04T15:37:11.500Z,2.17
2023-05-04T15:39:14.356Z,2.17
2023-05-04T15:41:17.166Z,1.90
2023-05-04T15:43:21.248Z,1.60
2023-05-04T15:45:24.365Z,1.90
2023-05-04T15:47:27.171Z,1.90
2023-05-04T15:49:35.013Z,1.60
2023-05-04T15:51:38.398Z,1.67
2023-05-04T15:53:41.318Z,1.90
2023-05-04T15:55:43.838Z,1.70
2023-05-04T15:57:46.717Z,2.00
2023-05-04T15:59:50.734Z,2.00
2023-05-04T16:01:53.820Z,1.90
2023-05-04T16:03:59.393Z,1.60
2023-05-04T16:06:02.252Z,1.70
2023-05-04T16:08:05.405Z,2.00
2023-05-04T16:10:10.863Z,1.90
2023-05-04T16:12:13.719Z,1.90
2023-05-04T16:14:16.518Z,1.50
2023-05-04T16:16:20.991Z,2.00
2023-05-04T16:18:23.872Z,1.50
2023-05-04T16:20:27.038Z,1.60
2023-05-04T16:22:30.085Z,1.70
2023-05-04T16:24:33.990Z,1.60
2023-05-04T16:26:36.828Z,2.00
2023-05-04T16:28:40.567Z,1.80
2023-05-04T16:30:45.627Z,1.70
2023-05-04T16:32:50.046Z,1.90
2023-05-04T16:34:53.208Z,1.63
2023-05-04T16:36:56.315Z,1.50
2023-05-04T16:39:01.554Z,1.60
2023-05-04T16:41:04.465Z,1.73
2023-05-04T16:43:07.576Z,1.90
2023-05-04T16:45:14.793Z,1.90
2023-05-04T16:47:17.912Z,2.17
2023-05-04T16:49:22.557Z,1.63
2023-05-04T16:51:25.355Z,1.67
2023-05-04T16:53:28.152Z,1.63
2023-05-04T16:55:31.610Z,1.70
2023-05-04T16:57:34.367Z,2.37
2023-05-04T16:59:37.147Z,1.83
2023-05-04T17:01:39.969Z,1.70
2023-05-04T17:03:50.624Z,1.57
2023-05-04T17:05:54.836Z,1.80
2023-05-04T17:07:57.621Z,2.00
2023-05-04T17:10:00.857Z,1.60
2023-05-04T17:12:04.415Z,1.57
2023-05-04T17:14:07.185Z,1.70
2023-05-04T17:16:11.002Z,2.30
2023-05-04T17:18:13.765Z,2.00
2023-05-04T17:20:17.371Z,2.10
2023-05-04T17:22:21.939Z,1.67
2023-05-04T17:24:24.714Z,1.90
2023-05-04T17:26:27.577Z,2.00
2023-05-04T17:28:30.979Z,2.33
2023-05-04T17:30:35.680Z,2.00
2023-05-04T17:32:39.185Z,2.20
2023-05-04T17:34:41.984Z,2.40
2023-05-04T17:36:45.185Z,2.33
2023-05-04T17:38:49.319Z,2.13
2023-05-04T17:40:53.281Z,1.80
2023-05-04T17:42:56.179Z,2.30
2023-05-04T17:44:59.509Z,1.97
2023-05-04T17:47:02.354Z,1.70
2023-05-04T17:49:06.274Z,2.27
2023-05-04T17:51:09.403Z,1.90
2023-05-04T17:53:15.019Z,1.83
2023-05-04T17:55:19.161Z,1.93
2023-05-04T17:57:22.231Z,1.90
2023-05-04T17:59:25.005Z,2.23
2023-05-04T18:01:27.845Z,2.03
2023-05-04T18:03:30.846Z,2.10
2023-05-04T18:05:33.789Z,1.80
2023-05-04T18:07:37.509Z,1.90
2023-05-04T18:09:40.346Z,1.60
2023-05-04T18:11:44.408Z,2.13
2023-05-04T18:13:47.204Z,1.87
2023-05-04T18:15:50.913Z,1.57
2023-05-04T18:17:53.785Z,2.27
2023-05-04T18:19:57.016Z,1.97
2023-05-04T18:21:59.737Z,1.60
2023-05-04T18:24:02.957Z,1.80
2023-05-04T18:26:06.210Z,2.17
2023-05-04T18:28:10.221Z,2.17
2023-05-04T18:30:13.484Z,2.47
2023-05-04T18:32:16.679Z,1.97
2023-05-04T18:34:19.483Z,2.20
2023-05-04T18:36:22.221Z,2.20
2023-05-04T18:38:26.290Z,1.90
2023-05-04T18:40:29.351Z,1.97
2023-05-04T18:42:32.210Z,2.13
2023-05-04T18:44:36.342Z,2.10
2023-05-04T18:46:39.165Z,2.13
2023-05-04T18:48:41.993Z,2.10
2023-05-04T18:50:53.889Z,2.17
2023-05-04T18:52:56.780Z,2.37
2023-05-04T18:54:59.577Z,1.90
2023-05-04T18:57:03.384Z,2.17
2023-05-04T18:59:06.728Z,1.90
2023-05-04T19:01:11.080Z,2.30
2023-05-04T19:03:14.033Z,2.20
2023-05-04T19:05:17.346Z,2.00
2023-05-04T19:07:20.121Z,1.90
2023-05-04T19:09:22.949Z,1.93
2023-05-04T19:11:26.588Z,2.03
2023-05-04T19:13:29.539Z,2.27
2023-05-04T19:15:33.541Z,2.47
2023-05-04T19:17:38.140Z,1.70
2023-05-04T19:19:41.342Z,2.13
2023-05-04T19:21:44.108Z,1.87
2023-05-04T19:23:47.068Z,2.00
2023-05-04T19:25:50.117Z,2.27
2023-05-04T19:27:53.606Z,2.00
2023-05-04T19:29:56.873Z,2.13
2023-05-04T19:32:03.405Z,2.47
2023-05-04T19:34:14.548Z,2.33
2023-05-04T19:36:19.088Z,2.30
2023-05-04T19:38:21.847Z,2.30
2023-05-04T19:40:25.289Z,2.50
2023-05-04T19:42:28.376Z,2.30
2023-05-04T19:44:31.129Z,2.07
2023-05-04T19:46:33.936Z,2.17
2023-05-04T19:48:38.131Z,2.40
2023-05-04T19:50:42.277Z,2.10
2023-05-04T19:52:45.293Z,2.30
2023-05-04T19:54:53.516Z,2.20
2023-05-04T19:56:56.413Z,2.50
2023-05-04T19:58:59.157Z,2.20
2023-05-04T20:01:02.102Z,2.50
2023-05-04T20:03:05.534Z,2.27
2023-05-04T20:05:08.675Z,2.50
2023-05-04T20:07:12.827Z,2.30
2023-05-04T20:09:15.632Z,2.47
2023-05-04T20:11:18.450Z,2.50
2023-05-04T20:13:21.761Z,2.07
2023-05-04T20:15:24.878Z,2.47
2023-05-04T20:17:28.032Z,2.27
2023-05-04T20:19:32.305Z,2.33
2023-05-04T20:21:35.110Z,2.47
2023-05-04T20:23:39.819Z,2.67
2023-05-04T20:25:42.889Z,2.00
2023-05-04T20:27:46.285Z,2.30
2023-05-04T20:29:49.061Z,2.40
2023-05-04T20:31:53.059Z,2.77
2023-05-04T20:33:55.944Z,2.20
2023-05-04T20:35:58.785Z,2.33
2023-05-04T20:38:02.044Z,3.00
2023-05-04T20:40:08.312Z,2.60
2023-05-04T20:42:11.282Z,2.50
2023-05-04T20:44:14.651Z,2.97
2023-05-04T20:46:18.935Z,2.50
2023-05-04T20:48:23.094Z,2.50
2023-05-04T20:50:26.173Z,2.33
2023-05-04T20:52:28.964Z,2.30
2023-05-04T20:54:32.472Z,2.20
2023-05-04T20:56:36.684Z,2.47
2023-05-04T20:58:39.698Z,2.60
2023-05-04T21:00:43.391Z,2.10
2023-05-04T21:02:47.158Z,2.53
2023-05-04T21:04:49.999Z,2.30
2023-05-04T21:06:52.756Z,2.60
2023-05-04T21:08:55.519Z,2.90
2023-05-04T21:10:58.716Z,2.60
2023-05-04T21:13:02.823Z,2.70
2023-05-04T21:15:06.148Z,2.60
2023-05-04T21:17:08.909Z,2.80
2023-05-04T21:19:11.988Z,2.40
2023-05-04T21:21:14.743Z,2.50
2023-05-04T21:23:17.469Z,2.73
2023-05-04T21:25:20.320Z,2.77
2023-05-04T21:27:23.383Z,2.57
2023-05-04T21:29:27.489Z,2.57
2023-05-04T21:31:30.892Z,2.60
2023-05-04T21:33:34.248Z,2.50
2023-05-04T21:35:37.478Z,3.00
2023-05-04T21:37:40.240Z,3.00
2023-05-04T21:39:43.402Z,2.57
2023-05-04T21:41:46.593Z,3.10
2023-05-04T21:43:49.463Z,3.10
2023-05-04T21:45:53.513Z,2.70
2023-05-04T21:47:56.830Z,2.90
2023-05-04T21:50:00.815Z,3.10
2023-05-04T21:52:03.582Z,3.17
2023-05-04T21:54:06.388Z,2.90
2023-05-04T21:56:09.929Z,2.67
2023-05-04T21:58:12.758Z,2.63
2023-05-04T22:00:18.186Z,2.60
2023-05-04T22:02:22.236Z,2.97
2023-05-04T22:04:25.336Z,2.70
2023-05-04T22:06:28.092Z,2.90
2023-05-04T22:08:30.841Z,2.67
2023-05-04T22:10:33.613Z,2.50
2023-05-04T22:12:36.767Z,2.50
2023-05-04T22:14:42.199Z,2.33
2023-05-04T22:16:45.711Z,2.77
2023-05-04T22:18:50.615Z,3.00
2023-05-04T22:20:53.799Z,2.53
2023-05-04T22:22:56.584Z,2.60
2023-05-04T22:24:59.326Z,2.70
2023-05-04T22:27:03.357Z,2.57
2023-05-04T22:29:06.520Z,2.50
2023-05-04T22:31:09.290Z,2.70
2023-05-04T22:33:12.137Z,2.50
2023-05-04T22:35:16.302Z,2.40
2023-05-04T22:37:19.439Z,2.43
2023-05-04T22:39:22.953Z,2.30
2023-05-04T22:41:25.726Z,2.23
2023-05-04T22:43:28.501Z,2.60
2023-05-04T22:45:31.596Z,2.50
2023-05-04T22:47:34.337Z,2.73
2023-05-04T22:49:37.115Z,3.03
2023-05-04T22:51:41.177Z,2.60
2023-05-04T22:53:44.920Z,2.20
2023-05-04T22:55:48.254Z,2.50
2023-05-04T22:57:50.998Z,3.03
2023-05-04T22:59:53.736Z,2.23
2023-05-04T23:01:56.786Z,2.93
2023-05-04T23:03:59.824Z,2.43
2023-05-04T23:06:02.769Z,2.60
2023-05-04T23:08:06.942Z,3.03
2023-05-04T23:10:10.821Z,2.70
2023-05-04T23:12:13.608Z,2.80
2023-05-04T23:14:16.838Z,2.50
2023-05-04T23:16:19.666Z,2.47
2023-05-04T23:18:22.464Z,2.60
2023-05-04T23:20:25.181Z,2.83
2023-05-04T23:22:28.160Z,2.57
2023-05-04T23:24:32.236Z,3.00
2023-05-04T23:26:34.985Z,2.80
2023-05-04T23:28:37.733Z,2.57
2023-05-04T23:30:40.508Z,2.50
2023-05-04T23:32:43.395Z,2.80
2023-05-04T23:34:47.634Z,2.47
2023-05-04T23:36:50.681Z,2.87
2023-05-04T23:38:53.446Z,2.70
2023-05-04T23:40:57.481Z,3.17
2023-05-04T23:43:00.253Z,2.87
2023-05-04T23:45:05.118Z,2.57
2023-05-04T23:47:08.013Z,2.57
2023-05-04T23:49:10.793Z,3.00
2023-05-04T23:51:13.556Z,3.00
2023-05-04T23:53:16.663Z,2.73
2023-05-04T23:55:19.560Z,2.57
2023-05-04T23:57:23.646Z,3.03
2023-05-04T23:59:26.353Z,3.00
